PATA/TAL METAR and TAF weather

Enter ICAO airport designator
Station Type Date Time Source
PATA METAR 2019/04/25 11:52 UTC NOAA

PATA 251152Z AUTO 33003KT 10SM CLR M07/M08 A3025 RMK AO2 SLP249 T10671083 10000 21067 51005 TSNO


Station Type Date Time Source
PATA Decoded METAR 2019/04/25 11:52 UTC NOAA

TANANA CALHOUN MEMORIAL AIRPORT , AK, United States (PATA) 65-10N 152-06W 67M
Apr 25, 2019 - 07:52 AM EDT / 2019.04.25 1152 UTC
Wind: from the NNW (330 degrees) at 3 MPH (3 KT):0
Visibility: 10 mile(s):0
Sky conditions: clear
Temperature: 19.9 F (-6.7 C)
Dew Point: 17.1 F (-8.3 C)
Relative Humidity: 88%
Pressure (altimeter): 30.25 in. Hg (1024 hPa)
Pressure tendency: 0.01 inches (0.5 hPa) higher than three hours ago
ob: PATA 251152Z AUTO 33003KT 10SM CLR M07/M08 A3025 RMK AO2 SLP249 T10671083 10000 21067 51005 TSNO
cycle: 12

Station Type Date Time Source
PATA TAF 2019/04/25 12:42 UTC NOAA

TAF PATA 251140Z 2512/2612 07005KT P6SM FEW070

Example: see airport list